createdAt,value
2022-08-22T00:00:43.218Z,9.20
2022-08-22T00:02:44.824Z,5.33
2022-08-22T00:02:56.788Z,6.10
2022-08-22T00:03:02.137Z,5.17
2022-08-22T00:03:04.492Z,7.90
2022-08-22T00:03:31.580Z,8.23
2022-08-22T00:06:13.735Z,7.57
2022-08-22T00:08:47.249Z,7.50
2022-08-22T00:11:43.089Z,8.50
2022-08-22T00:14:19.203Z,7.20
2022-08-22T00:16:57.627Z,7.07
2022-08-22T00:19:32.115Z,8.07
2022-08-22T00:22:20.368Z,8.77
2022-08-22T00:25:00.760Z,7.90
2022-08-22T00:27:34.334Z,8.40
2022-08-22T00:30:14.226Z,7.13
2022-08-22T00:32:55.662Z,7.50
2022-08-22T00:35:44.517Z,10.23
2022-08-22T00:38:23.243Z,6.97
2022-08-22T00:41:05.993Z,7.30
2022-08-22T00:43:32.953Z,8.60
2022-08-22T00:46:08.765Z,7.90
2022-08-22T00:48:35.723Z,8.00
2022-08-22T00:51:25.171Z,7.47
2022-08-22T00:54:06.777Z,7.63
2022-08-22T00:56:36.568Z,7.50
2022-08-22T00:59:23.954Z,7.40
2022-08-22T01:01:51.539Z,7.80
2022-08-22T01:04:51.738Z,9.63
2022-08-22T01:07:38.641Z,6.20
2022-08-22T01:10:33.346Z,5.93
2022-08-22T01:13:03.450Z,6.40
2022-08-22T01:15:35.133Z,6.00
2022-08-22T01:18:25.065Z,6.33
2022-08-22T01:21:24.114Z,6.33
2022-08-22T01:24:21.195Z,6.67
2022-08-22T01:27:00.028Z,7.50
2022-08-22T01:29:38.967Z,6.20
2022-08-22T01:32:24.908Z,9.90
2022-08-22T01:35:00.522Z,5.70
2022-08-22T01:37:47.875Z,5.87
2022-08-22T01:40:54.031Z,6.23
2022-08-22T01:44:03.757Z,6.10
2022-08-22T01:46:31.398Z,5.87
2022-08-22T01:49:24.509Z,5.50
2022-08-22T01:52:29.624Z,5.47
2022-08-22T01:55:06.275Z,6.27
2022-08-22T01:57:48.150Z,7.67
2022-08-22T02:00:20.193Z,5.63
2022-08-22T02:03:14.675Z,5.40
2022-08-22T02:05:54.957Z,5.20
2022-08-22T02:08:44.940Z,7.10
2022-08-22T02:11:30.589Z,6.40
2022-08-22T02:14:06.758Z,5.27
2022-08-22T02:16:43.525Z,6.27
2022-08-22T02:19:16.514Z,5.50
2022-08-22T02:21:55.975Z,5.77
2022-08-22T02:24:40.955Z,10.87
2022-08-22T02:27:31.925Z,7.97
2022-08-22T02:29:59.321Z,6.70
2022-08-22T02:32:46.762Z,5.53
2022-08-22T02:35:14.540Z,6.93
2022-08-22T02:38:06.189Z,15.73
2022-08-22T02:40:39.148Z,6.17
2022-08-22T02:43:44.915Z,5.37
2022-08-22T02:46:37.557Z,6.17
2022-08-22T02:49:09.986Z,5.57
2022-08-22T02:51:53.991Z,7.03
2022-08-22T02:54:39.425Z,5.50
2022-08-22T02:57:23.111Z,4.70
2022-08-22T02:59:59.074Z,6.40
2022-08-22T03:02:34.294Z,5.20
2022-08-22T03:05:15.651Z,8.47
2022-08-22T03:07:55.972Z,4.90
2022-08-22T03:10:30.041Z,5.47
2022-08-22T03:13:00.503Z,5.07
2022-08-22T03:15:37.351Z,5.30
2022-08-22T03:18:20.276Z,5.70
2022-08-22T03:20:59.514Z,5.10
2022-08-22T03:23:55.958Z,4.13
2022-08-22T03:26:40.130Z,5.03
2022-08-22T03:29:17.339Z,5.00
2022-08-22T03:32:06.093Z,6.10
2022-08-22T03:34:34.043Z,4.40
2022-08-22T03:37:03.880Z,4.93
2022-08-22T03:39:52.642Z,7.03
2022-08-22T03:42:25.264Z,12.20
2022-08-22T03:45:18.537Z,5.53
2022-08-22T03:47:55.039Z,5.43
2022-08-22T03:50:40.841Z,5.70
2022-08-22T03:53:38.814Z,4.57
2022-08-22T03:56:11.312Z,3.97
2022-08-22T03:58:44.100Z,5.50
2022-08-22T04:01:29.237Z,4.00
2022-08-22T04:04:11.614Z,5.40
2022-08-22T04:07:03.311Z,3.63
2022-08-22T04:09:44.394Z,3.57
2022-08-22T04:12:41.954Z,4.00
2022-08-22T04:15:29.971Z,2.57
2022-08-22T04:18:22.916Z,2.63
2022-08-22T04:21:00.127Z,2.30
2022-08-22T04:23:41.041Z,2.27
2022-08-22T04:26:41.848Z,2.70
2022-08-22T04:29:37.658Z,4.50
2022-08-22T04:32:38.667Z,2.37
2022-08-22T04:35:13.624Z,2.13
2022-08-22T04:38:18.010Z,2.90
2022-08-22T04:40:50.923Z,1.70
2022-08-22T04:43:22.371Z,2.20
2022-08-22T04:46:03.600Z,1.90
2022-08-22T04:48:40.993Z,1.90
2022-08-22T04:51:31.143Z,1.92
2022-08-22T04:54:16.859Z,2.40
2022-08-22T04:57:03.009Z,1.37
2022-08-22T04:59:31.312Z,1.80
2022-08-22T05:02:07.052Z,1.40
2022-08-22T05:05:01.794Z,2.60
2022-08-22T05:07:41.520Z,2.97
2022-08-22T05:10:25.444Z,1.90
2022-08-22T05:13:06.583Z,2.10
2022-08-22T05:15:40.914Z,2.58
2022-08-22T05:18:13.539Z,2.70
2022-08-22T05:20:44.917Z,1.83
2022-08-22T05:23:20.403Z,1.92
2022-08-22T05:25:51.291Z,2.37
2022-08-22T05:28:40.989Z,2.35
2022-08-22T05:31:23.271Z,2.10
2022-08-22T05:34:00.744Z,2.65
2022-08-22T05:36:55.552Z,1.60
2022-08-22T05:39:27.942Z,1.87
2022-08-22T05:41:57.238Z,2.25
2022-08-22T05:44:30.513Z,1.67
2022-08-22T05:47:27.138Z,1.70
2022-08-22T05:50:00.245Z,2.38
2022-08-22T05:52:35.906Z,2.63
2022-08-22T05:55:41.814Z,2.17
2022-08-22T05:58:43.952Z,1.47
2022-08-22T06:01:38.218Z,1.65
2022-08-22T06:04:12.247Z,1.95
2022-08-22T06:06:47.397Z,2.20
2022-08-22T06:09:35.702Z,1.63
2022-08-22T06:12:29.778Z,1.63
2022-08-22T06:15:12.135Z,1.80
2022-08-22T06:17:48.092Z,1.60
2022-08-22T06:20:26.504Z,2.85
2022-08-22T06:23:01.333Z,1.93
2022-08-22T06:25:33.487Z,1.70
2022-08-22T06:28:06.952Z,2.10
2022-08-22T06:30:35.634Z,2.23
2022-08-22T06:33:12.354Z,2.00
2022-08-22T06:36:20.548Z,1.63
2022-08-22T06:39:31.845Z,2.60
2022-08-22T06:42:16.874Z,1.93
2022-08-22T06:44:55.736Z,2.50
2022-08-22T06:47:28.733Z,2.37
2022-08-22T06:50:28.300Z,3.00
2022-08-22T06:53:08.517Z,1.90
2022-08-22T06:55:40.042Z,2.90
2022-08-22T06:58:14.266Z,2.47
2022-08-22T07:00:43.442Z,3.20
2022-08-22T07:03:20.535Z,2.07
2022-08-22T07:05:47.800Z,2.40
2022-08-22T07:08:19.876Z,2.73
2022-08-22T07:11:16.744Z,1.83
2022-08-22T07:13:51.735Z,2.43
2022-08-22T07:16:45.483Z,2.50
2022-08-22T07:19:35.098Z,2.57
2022-08-22T07:22:25.765Z,2.70
2022-08-22T07:24:57.047Z,2.57
2022-08-22T07:27:48.917Z,2.80
2022-08-22T07:30:28.142Z,2.60
2022-08-22T07:33:25.827Z,2.53
2022-08-22T07:36:13.618Z,2.77
2022-08-22T07:38:47.578Z,2.63
2022-08-22T07:41:33.553Z,2.00
2022-08-22T07:44:17.660Z,4.30
2022-08-22T07:46:57.877Z,2.57
2022-08-22T07:49:32.592Z,2.30
2022-08-22T07:52:06.081Z,2.57
2022-08-22T07:54:43.806Z,2.23
2022-08-22T07:57:33.954Z,2.53
2022-08-22T08:00:04.824Z,2.03
2022-08-22T08:02:32.357Z,1.60
2022-08-22T08:05:01.169Z,1.50
2022-08-22T08:07:30.409Z,1.63
2022-08-22T08:10:03.237Z,1.47
2022-08-22T08:12:38.328Z,1.40
2022-08-22T08:15:10.557Z,1.80
2022-08-22T08:17:39.545Z,1.30
2022-08-22T08:20:11.665Z,1.27
2022-08-22T08:22:43.203Z,1.13
2022-08-22T08:25:16.848Z,1.47
2022-08-22T08:28:02.661Z,1.67
2022-08-22T08:30:35.675Z,2.00
2022-08-22T08:33:24.370Z,1.43
2022-08-22T08:36:05.870Z,1.73
2022-08-22T08:38:52.810Z,1.63
2022-08-22T08:41:41.187Z,2.00
2022-08-22T08:44:17.206Z,1.70
2022-08-22T08:47:13.072Z,1.60
2022-08-22T08:49:51.221Z,1.33
2022-08-22T08:52:24.464Z,2.10
2022-08-22T08:55:22.610Z,1.50
2022-08-22T08:57:50.059Z,1.47
2022-08-22T09:00:40.709Z,1.73
2022-08-22T09:03:56.486Z,1.50
2022-08-22T09:06:52.912Z,1.87
2022-08-22T09:09:55.488Z,1.40
2022-08-22T09:12:25.867Z,2.40
2022-08-22T09:15:21.458Z,1.30
2022-08-22T09:18:29.592Z,1.77
2022-08-22T09:21:13.105Z,0.90
2022-08-22T09:24:11.005Z,1.50
2022-08-22T09:26:52.389Z,1.00
2022-08-22T09:32:33.918Z,1.20
2022-08-22T09:35:13.480Z,1.43
2022-08-22T09:38:03.906Z,0.90
2022-08-22T09:40:16.124Z,1.30
2022-08-22T09:40:48.280Z,1.53
2022-08-22T09:43:33.591Z,0.80
2022-08-22T09:46:16.577Z,0.73
2022-08-22T09:49:07.222Z,2.60
2022-08-22T09:51:59.352Z,0.93
2022-08-22T09:54:37.568Z,1.03
2022-08-22T09:57:37.308Z,0.70
2022-08-22T10:00:22.107Z,0.87
2022-08-22T10:03:27.962Z,0.60
2022-08-22T10:06:05.458Z,0.70
2022-08-22T10:08:48.511Z,1.03
2022-08-22T10:11:19.732Z,0.60
2022-08-22T10:14:14.639Z,0.50
2022-08-22T10:17:27.006Z,0.60
2022-08-22T10:20:25.171Z,0.50
2022-08-22T10:23:18.931Z,0.60
2022-08-22T10:26:22.833Z,0.63
2022-08-22T10:29:16.199Z,0.87
2022-08-22T10:31:59.081Z,3.33
2022-08-22T10:34:40.124Z,0.60
2022-08-22T10:37:30.385Z,0.60
2022-08-22T10:40:10.225Z,0.60
2022-08-22T10:42:46.464Z,0.40
2022-08-22T10:45:36.269Z,0.60
2022-08-22T10:48:21.313Z,0.50
2022-08-22T10:50:52.533Z,0.97
2022-08-22T10:53:46.320Z,0.60
2022-08-22T10:56:24.132Z,0.50
2022-08-22T10:59:16.466Z,0.50
2022-08-22T11:01:57.766Z,0.63
2022-08-22T11:04:53.779Z,0.60
2022-08-22T11:07:50.234Z,0.50
2022-08-22T11:10:25.201Z,0.50
2022-08-22T11:13:23.947Z,0.50
2022-08-22T11:16:05.923Z,0.63
2022-08-22T11:19:15.023Z,0.70
2022-08-22T11:22:07.384Z,0.50
2022-08-22T11:24:56.791Z,0.57
2022-08-22T11:27:57.592Z,0.50
2022-08-22T11:30:44.924Z,0.50
2022-08-22T11:33:46.896Z,0.70
2022-08-22T11:36:36.566Z,0.50
2022-08-22T11:39:09.920Z,0.50
2022-08-22T11:41:52.278Z,0.50
2022-08-22T11:44:37.540Z,0.50
2022-08-22T11:47:27.283Z,0.60
2022-08-22T11:50:14.487Z,0.50
2022-08-22T11:52:51.922Z,0.73
2022-08-22T11:55:41.197Z,0.50
2022-08-22T11:58:20.139Z,0.53
2022-08-22T12:00:48.723Z,0.70
2022-08-22T12:03:23.313Z,0.80
2022-08-22T12:06:12.435Z,0.60
2022-08-22T12:08:51.165Z,0.50
2022-08-22T12:11:38.593Z,0.70
2022-08-22T12:14:20.205Z,0.70
2022-08-22T12:17:18.966Z,0.60
2022-08-22T12:20:53.792Z,0.50
2022-08-22T12:23:38.070Z,0.50
2022-08-22T12:26:22.019Z,0.70
2022-08-22T12:29:01.675Z,0.50
2022-08-22T12:31:34.473Z,0.80
2022-08-22T12:34:36.803Z,0.80
2022-08-22T12:37:21.478Z,0.50
2022-08-22T12:40:00.268Z,0.50
2022-08-22T12:42:53.055Z,0.53
2022-08-22T12:45:35.867Z,0.40
2022-08-22T12:48:07.409Z,0.50
2022-08-22T12:50:45.889Z,0.50
2022-08-22T12:53:31.364Z,0.50
2022-08-22T12:56:04.000Z,0.50
2022-08-22T12:59:05.110Z,0.50
2022-08-22T13:01:43.370Z,0.93
2022-08-22T13:04:33.053Z,0.50
2022-08-22T13:07:01.504Z,0.50
2022-08-22T13:09:34.525Z,0.53
2022-08-22T13:12:30.177Z,0.70
2022-08-22T13:15:06.399Z,0.50
2022-08-22T13:17:38.124Z,0.63
2022-08-22T13:20:21.008Z,1.03
2022-08-22T13:22:48.389Z,0.50
2022-08-22T13:25:25.960Z,0.50
2022-08-22T13:28:01.857Z,0.70
2022-08-22T13:30:38.915Z,0.70
2022-08-22T13:33:11.340Z,0.50
2022-08-22T13:35:51.894Z,0.77
2022-08-22T13:38:33.579Z,0.47
2022-08-22T13:41:03.978Z,0.50
2022-08-22T13:43:54.890Z,0.40
2022-08-22T13:46:28.156Z,0.97
2022-08-22T13:49:00.971Z,0.40
2022-08-22T13:51:40.391Z,0.50
2022-08-22T13:54:10.873Z,0.40
2022-08-22T13:56:59.522Z,0.40
2022-08-22T13:59:50.130Z,0.50
2022-08-22T14:02:49.852Z,0.40
2022-08-22T14:05:46.744Z,0.57
2022-08-22T14:08:14.733Z,0.50
2022-08-22T14:10:57.903Z,0.70
2022-08-22T14:13:58.396Z,0.50
2022-08-22T14:16:31.953Z,0.50
2022-08-22T14:19:06.120Z,0.50
2022-08-22T14:21:59.534Z,0.80
2022-08-22T14:24:45.326Z,0.57
2022-08-22T14:27:17.262Z,0.60
2022-08-22T14:29:54.639Z,0.50
2022-08-22T14:32:25.244Z,0.70
2022-08-22T14:35:03.797Z,0.60
2022-08-22T14:37:34.701Z,0.53
2022-08-22T14:40:11.482Z,0.70
2022-08-22T14:42:50.769Z,0.70
2022-08-22T14:45:21.887Z,0.50
2022-08-22T14:48:30.469Z,1.33
2022-08-22T14:51:00.734Z,0.50
2022-08-22T14:53:37.530Z,0.40
2022-08-22T14:56:12.291Z,0.50
2022-08-22T14:59:03.158Z,0.60
2022-08-22T15:01:33.809Z,0.50
2022-08-22T15:04:11.549Z,0.50
2022-08-22T15:06:48.118Z,0.50
2022-08-22T15:09:49.506Z,0.50
2022-08-22T15:12:45.402Z,0.40
2022-08-22T15:15:41.122Z,0.67
2022-08-22T15:18:28.884Z,0.53
2022-08-22T15:21:08.940Z,0.60
2022-08-22T15:23:45.420Z,0.53
2022-08-22T15:26:28.782Z,0.43
2022-08-22T15:29:07.483Z,0.80
2022-08-22T15:31:35.476Z,0.50
2022-08-22T15:34:14.500Z,0.90
2022-08-22T15:37:09.855Z,0.50
2022-08-22T15:39:58.602Z,1.13
2022-08-22T15:42:30.919Z,0.60
2022-08-22T15:44:59.568Z,0.50
2022-08-22T15:47:34.955Z,0.50
2022-08-22T15:50:27.553Z,0.60
2022-08-22T15:53:25.499Z,1.37
2022-08-22T15:56:11.671Z,0.60
2022-08-22T15:58:48.541Z,0.50
2022-08-22T16:01:23.320Z,0.67
2022-08-22T16:04:05.109Z,0.57
2022-08-22T16:06:54.198Z,0.50
2022-08-22T16:09:40.851Z,0.60
2022-08-22T16:12:24.573Z,0.50
2022-08-22T16:14:53.478Z,0.80
2022-08-22T16:17:29.496Z,0.90
2022-08-22T16:20:19.421Z,1.23
2022-08-22T16:22:56.694Z,0.53
2022-08-22T16:25:45.627Z,0.57
2022-08-22T16:28:57.376Z,0.67
2022-08-22T16:31:44.284Z,0.50
2022-08-22T16:34:17.255Z,0.50
2022-08-22T16:36:50.199Z,0.50
2022-08-22T16:39:23.339Z,0.50
2022-08-22T16:42:13.694Z,0.87
2022-08-22T16:45:04.576Z,0.60
2022-08-22T16:47:36.437Z,0.50
2022-08-22T16:50:27.343Z,0.53
2022-08-22T16:53:08.754Z,0.60
2022-08-22T16:55:40.279Z,0.40
2022-08-22T16:58:19.912Z,0.47
2022-08-22T17:00:58.191Z,0.50
2022-08-22T17:03:53.498Z,0.57
2022-08-22T17:07:07.200Z,0.50
2022-08-22T17:09:43.915Z,0.50
2022-08-22T17:12:22.106Z,0.70
2022-08-22T17:15:16.705Z,0.50
2022-08-22T17:18:11.522Z,0.40
2022-08-22T17:20:57.983Z,0.50
2022-08-22T17:23:46.827Z,0.50
2022-08-22T17:26:55.185Z,0.53
2022-08-22T17:29:50.176Z,0.60
2022-08-22T17:32:39.092Z,0.50
2022-08-22T17:35:44.114Z,0.50
2022-08-22T17:38:27.486Z,0.50
2022-08-22T17:40:57.287Z,0.40
2022-08-22T17:43:42.965Z,0.50
2022-08-22T17:46:32.345Z,0.50
2022-08-22T17:49:11.566Z,0.50
2022-08-22T17:52:08.297Z,0.53
2022-08-22T17:55:12.775Z,0.97
2022-08-22T17:57:56.324Z,0.60
2022-08-22T18:00:26.298Z,0.50
2022-08-22T18:03:12.187Z,0.63
2022-08-22T18:06:18.275Z,0.53
2022-08-22T18:09:18.051Z,0.50
2022-08-22T18:12:06.779Z,0.70
2022-08-22T18:14:51.874Z,0.80
2022-08-22T18:17:25.937Z,0.40
2022-08-22T18:20:15.775Z,0.80
2022-08-22T18:22:49.982Z,0.70
2022-08-22T18:25:20.838Z,0.50
2022-08-22T18:27:51.796Z,0.83
2022-08-22T18:30:23.547Z,0.73
2022-08-22T18:32:59.342Z,0.60
2022-08-22T18:35:41.784Z,0.50
2022-08-22T18:38:30.033Z,0.50
2022-08-22T18:41:26.034Z,0.50
2022-08-22T18:43:54.675Z,0.80
2022-08-22T18:46:39.992Z,0.73
2022-08-22T18:49:35.926Z,0.87
2022-08-22T18:52:23.649Z,0.60
2022-08-22T18:55:01.867Z,0.50
2022-08-22T18:57:43.001Z,0.87
2022-08-22T19:00:21.340Z,0.60
2022-08-22T19:03:26.775Z,0.73
2022-08-22T19:06:08.186Z,0.60
2022-08-22T19:09:17.063Z,0.73
2022-08-22T19:12:11.599Z,0.57
2022-08-22T19:15:13.228Z,1.00
2022-08-22T19:18:10.767Z,0.50
2022-08-22T19:20:59.080Z,0.70
2022-08-22T19:23:40.882Z,0.50
2022-08-22T19:26:32.666Z,0.83
2022-08-22T19:29:24.977Z,0.70
2022-08-22T19:31:56.287Z,0.50
2022-08-22T19:34:29.889Z,0.80
2022-08-22T19:37:33.127Z,0.60
2022-08-22T19:40:12.379Z,0.60
2022-08-22T19:42:42.608Z,0.60
2022-08-22T19:45:31.549Z,0.50
2022-08-22T19:48:13.140Z,0.70
2022-08-22T19:50:42.575Z,0.73
2022-08-22T19:53:35.619Z,0.70
2022-08-22T19:56:25.222Z,0.60
2022-08-22T19:59:20.947Z,0.40
2022-08-22T20:02:26.670Z,0.60
2022-08-22T20:05:33.049Z,0.80
2022-08-22T20:08:28.441Z,0.50
2022-08-22T20:11:28.381Z,0.60
2022-08-22T20:14:11.868Z,0.60
2022-08-22T20:17:01.348Z,0.60
2022-08-22T20:22:49.532Z,0.80
2022-08-22T20:25:44.282Z,0.70
2022-08-22T20:28:30.605Z,0.60
2022-08-22T20:31:01.250Z,0.60
2022-08-22T20:33:34.049Z,0.83
2022-08-22T20:36:06.166Z,0.63
2022-08-22T20:38:56.005Z,0.80
2022-08-22T20:41:32.167Z,0.87
2022-08-22T20:44:16.120Z,0.87
2022-08-22T20:46:43.641Z,0.70
2022-08-22T20:49:28.889Z,0.77
2022-08-22T20:51:57.939Z,0.70
2022-08-22T20:54:28.285Z,0.67
2022-08-22T20:57:18.099Z,1.07
2022-08-22T20:59:58.189Z,1.10
2022-08-22T21:02:30.293Z,0.93
2022-08-22T21:05:00.487Z,0.73
2022-08-22T21:07:43.380Z,1.30
2022-08-22T21:10:41.186Z,1.07
2022-08-22T21:13:15.722Z,0.90
2022-08-22T21:15:57.039Z,0.70
2022-08-22T21:18:37.557Z,1.00
2022-08-22T21:21:28.690Z,0.80
2022-08-22T21:24:00.947Z,1.13
2022-08-22T21:26:39.216Z,0.90
2022-08-22T21:29:15.315Z,0.97
2022-08-22T21:31:42.380Z,1.10
2022-08-22T21:34:22.454Z,1.03
2022-08-22T21:36:57.915Z,0.97
2022-08-22T21:39:34.775Z,0.93
2022-08-22T21:42:01.776Z,0.80
2022-08-22T21:44:31.621Z,0.90
2022-08-22T21:47:19.139Z,1.10
2022-08-22T21:50:03.373Z,0.90
2022-08-22T21:52:33.001Z,0.80
2022-08-22T21:55:24.869Z,0.90
2022-08-22T21:58:09.805Z,1.27
2022-08-22T22:00:48.933Z,1.30
2022-08-22T22:03:19.638Z,1.40
2022-08-22T22:05:49.418Z,1.10
2022-08-22T22:08:17.001Z,0.80
2022-08-22T22:10:46.629Z,1.13
2022-08-22T22:13:14.301Z,1.27
2022-08-22T22:15:44.879Z,1.10
2022-08-22T22:18:13.790Z,1.20
2022-08-22T22:20:41.757Z,0.80
2022-08-22T22:23:09.864Z,1.07
2022-08-22T22:25:42.100Z,1.23
2022-08-22T22:28:31.733Z,0.90
2022-08-22T22:30:59.025Z,1.23
2022-08-22T22:33:30.342Z,0.90
2022-08-22T22:36:04.939Z,0.80
2022-08-22T22:38:32.737Z,0.97
2022-08-22T22:40:59.896Z,0.90
2022-08-22T22:43:28.018Z,0.80
2022-08-22T22:45:55.147Z,0.80
2022-08-22T22:48:24.864Z,0.63
2022-08-22T22:50:53.380Z,0.60
2022-08-22T22:53:21.482Z,0.70
2022-08-22T22:56:00.758Z,0.60
2022-08-22T22:58:29.547Z,1.00
2022-08-22T23:00:57.469Z,0.73
2022-08-22T23:03:26.875Z,0.83
2022-08-22T23:05:53.955Z,1.20
2022-08-22T23:08:20.921Z,0.80
2022-08-22T23:10:47.922Z,0.77
2022-08-22T23:13:15.021Z,0.77
2022-08-22T23:15:45.767Z,0.73
2022-08-22T23:18:12.762Z,0.90
2022-08-22T23:20:39.739Z,0.70
2022-08-22T23:23:06.671Z,1.20
2022-08-22T23:25:34.066Z,0.90
2022-08-22T23:28:01.253Z,2.80
2022-08-22T23:30:28.528Z,1.20
2022-08-22T23:32:55.846Z,1.20
2022-08-22T23:35:22.864Z,0.73
2022-08-22T23:37:49.969Z,1.00
2022-08-22T23:40:17.130Z,0.90
2022-08-22T23:42:44.331Z,1.47
2022-08-22T23:45:11.748Z,1.03
2022-08-22T23:47:38.831Z,1.43
2022-08-22T23:50:06.605Z,0.87
2022-08-22T23:52:34.236Z,1.23
2022-08-22T23:55:01.196Z,0.87
2022-08-22T23:57:29.307Z,0.70
2022-08-22T23:59:57.284Z,0.83
